createdAt,value
2018-02-13T00:01:34.581Z,1006.66
2018-02-13T00:02:21.712Z,1006.66
2018-02-13T00:03:02.464Z,1006.63
2018-02-13T00:03:44.734Z,1006.69
2018-02-13T00:04:25.714Z,1006.65
2018-02-13T00:05:07.024Z,1006.66
2018-02-13T00:05:47.364Z,1006.67
2018-02-13T00:06:28.062Z,1006.67
2018-02-13T00:07:08.661Z,1006.67
2018-02-13T00:07:48.983Z,1006.65
2018-02-13T00:08:29.818Z,1006.65
2018-02-13T00:09:10.986Z,1006.65
2018-02-13T00:09:53.234Z,1006.69
2018-02-13T00:10:33.942Z,1006.65
2018-02-13T00:11:14.684Z,1006.68
2018-02-13T00:11:56.009Z,1006.69
2018-02-13T00:12:36.501Z,1006.67
2018-02-13T00:13:19.194Z,1006.67
2018-02-13T00:14:01.729Z,1006.67
2018-02-13T00:14:41.764Z,1006.67
2018-02-13T00:18:32.908Z,1006.62
2018-02-13T00:19:13.147Z,1006.61
2018-02-13T00:19:53.558Z,1006.59
2018-02-13T00:20:33.917Z,1006.66
2018-02-13T00:21:14.308Z,1006.63
2018-02-13T00:21:54.707Z,1006.65
2018-02-13T00:22:35.053Z,1006.66
2018-02-13T00:24:54.182Z,1006.62
2018-02-13T00:25:34.074Z,1006.64
2018-02-13T00:26:14.506Z,1006.64
2018-02-13T00:26:54.856Z,1006.64
2018-02-13T00:27:35.247Z,1006.62
2018-02-13T00:28:15.676Z,1006.63
2018-02-13T00:28:56.067Z,1006.64
2018-02-13T00:29:36.441Z,1006.62
2018-02-13T00:30:16.840Z,1006.65
2018-02-13T00:30:57.224Z,1006.61
2018-02-13T00:31:37.648Z,1006.62
2018-02-13T00:32:18.028Z,1006.61
2018-02-13T00:32:58.366Z,1006.62
2018-02-13T00:33:38.770Z,1006.59
2018-02-13T00:34:19.135Z,1006.62
2018-02-13T00:34:59.528Z,1006.6
2018-02-13T00:35:39.905Z,1006.63
2018-02-13T00:36:20.318Z,1006.58
2018-02-13T00:37:00.707Z,1006.59
2018-02-13T00:37:41.088Z,1006.63
2018-02-13T00:38:21.489Z,1006.59
2018-02-13T00:39:01.885Z,1006.57
2018-02-13T00:39:42.316Z,1006.6
2018-02-13T00:40:22.656Z,1006.61
2018-02-13T00:41:03.041Z,1006.59
2018-02-13T00:41:43.447Z,1006.63
2018-02-13T00:42:23.827Z,1006.6
2018-02-13T00:43:04.218Z,1006.59
2018-02-13T00:43:44.621Z,1006.57
2018-02-13T00:44:25.006Z,1006.58
2018-02-13T00:45:05.434Z,1006.58
2018-02-13T00:45:45.765Z,1006.57
2018-02-13T00:46:26.175Z,1006.61
2018-02-13T00:47:06.570Z,1006.61
2018-02-13T00:47:47.030Z,1006.62
2018-02-13T00:48:27.432Z,1006.57
2018-02-13T00:49:07.773Z,1006.59
2018-02-13T00:49:48.185Z,1006.58
2018-02-13T00:50:28.607Z,1006.57
2018-02-13T00:51:08.975Z,1006.57
2018-02-13T00:51:49.362Z,1006.53
2018-02-13T00:52:29.720Z,1006.49
2018-02-13T00:53:10.152Z,1006.54
2018-02-13T00:53:50.554Z,1006.54
2018-02-13T00:56:18.179Z,1006.5
2018-02-13T00:56:58.581Z,1006.55
2018-02-13T00:57:38.983Z,1006.51
2018-02-13T00:59:36.764Z,1006.5
2018-02-13T01:00:17.413Z,1006.47
2018-02-13T01:00:57.811Z,1006.49
2018-02-13T01:01:38.199Z,1006.44
2018-02-13T01:02:18.605Z,1006.45
2018-02-13T01:02:59.015Z,1006.45
2018-02-13T01:03:39.398Z,1006.45
2018-02-13T01:04:19.816Z,1006.5
2018-02-13T01:05:00.207Z,1006.48
2018-02-13T01:05:40.592Z,1006.47
2018-02-13T01:06:20.953Z,1006.47
2018-02-13T01:07:01.357Z,1006.45
2018-02-13T01:07:41.742Z,1006.47
2018-02-13T01:08:22.171Z,1006.45
2018-02-13T01:09:02.566Z,1006.47
2018-02-13T01:09:42.928Z,1006.46
2018-02-13T01:10:23.364Z,1006.46
2018-02-13T01:11:03.759Z,1006.44
2018-02-13T01:11:44.153Z,1006.48
2018-02-13T01:13:56.817Z,1006.47
2018-02-13T01:14:37.084Z,1006.43
2018-02-13T01:15:17.489Z,1006.38
2018-02-13T01:15:57.863Z,1006.44
2018-02-13T01:16:38.274Z,1006.48
2018-02-13T01:17:18.679Z,1006.45
2018-02-13T01:17:59.048Z,1006.43
2018-02-13T01:18:39.494Z,1006.43
2018-02-13T01:19:19.894Z,1006.42
2018-02-13T01:20:00.258Z,1006.5
2018-02-13T01:20:40.649Z,1006.44
2018-02-13T01:21:21.040Z,1006.46
2018-02-13T01:22:01.464Z,1006.42
2018-02-13T01:22:41.868Z,1006.42
2018-02-13T01:23:22.294Z,1006.38
2018-02-13T01:24:02.645Z,1006.42
2018-02-13T01:24:43.039Z,1006.4
2018-02-13T01:25:23.421Z,1006.43
2018-02-13T01:26:03.794Z,1006.4
2018-02-13T01:26:44.184Z,1006.4
2018-02-13T01:27:24.588Z,1006.38
2018-02-13T01:28:05.028Z,1006.37
2018-02-13T01:28:45.357Z,1006.41
2018-02-13T01:29:25.747Z,1006.36
2018-02-13T01:30:06.143Z,1006.38
2018-02-13T01:30:46.627Z,1006.33
2018-02-13T01:31:26.955Z,1006.32
2018-02-13T01:32:07.342Z,1006.33
2018-02-13T01:32:47.727Z,1006.37
2018-02-13T01:33:28.136Z,1006.34
2018-02-13T01:34:08.567Z,1006.36
2018-02-13T01:34:48.907Z,1006.36
2018-02-13T01:35:29.351Z,1006.37
2018-02-13T01:36:09.741Z,1006.36
2018-02-13T01:36:50.109Z,1006.34
2018-02-13T01:37:30.475Z,1006.33
2018-02-13T01:38:10.885Z,1006.34
2018-02-13T01:38:51.276Z,1006.36
2018-02-13T01:39:31.692Z,1006.34
2018-02-13T01:40:12.087Z,1006.37
2018-02-13T01:40:52.501Z,1006.37
2018-02-13T01:41:32.882Z,1006.35
2018-02-13T01:42:13.256Z,1006.39
2018-02-13T01:42:53.749Z,1006.35
2018-02-13T01:43:34.033Z,1006.39
2018-02-13T01:44:14.442Z,1006.36
2018-02-13T01:44:54.835Z,1006.34
2018-02-13T01:45:35.231Z,1006.32
2018-02-13T01:46:15.629Z,1006.34
2018-02-13T01:46:56.049Z,1006.31
2018-02-13T01:47:36.408Z,1006.34
2018-02-13T01:48:16.878Z,1006.35
2018-02-13T01:48:57.249Z,1006.32
2018-02-13T01:49:37.635Z,1006.32
2018-02-13T01:51:51.989Z,1006.3
2018-02-13T01:52:32.194Z,1006.3
2018-02-13T01:53:12.579Z,1006.3
2018-02-13T01:53:52.960Z,1006.3
2018-02-13T01:54:33.402Z,1006.26
2018-02-13T01:55:13.736Z,1006.28
2018-02-13T01:55:54.164Z,1006.27
2018-02-13T01:56:34.585Z,1006.26
2018-02-13T01:57:14.907Z,1006.24
2018-02-13T01:57:55.336Z,1006.27
2018-02-13T01:58:35.702Z,1006.27
2018-02-13T01:59:16.094Z,1006.22
2018-02-13T01:59:56.532Z,1006.2
2018-02-13T02:00:36.953Z,1006.19
2018-02-13T02:01:17.296Z,1006.2
2018-02-13T02:01:57.703Z,1006.17
2018-02-13T02:02:38.062Z,1006.16
2018-02-13T02:04:50.845Z,1006.1
2018-02-13T02:05:31.069Z,1006.12
2018-02-13T02:06:11.478Z,1006.13
2018-02-13T02:06:51.869Z,1006.11
2018-02-13T02:07:32.257Z,1006.11
2018-02-13T02:08:12.673Z,1006.11
2018-02-13T02:08:53.029Z,1006.1
2018-02-13T02:09:33.442Z,1006.09
2018-02-13T02:10:13.805Z,1006.09
2018-02-13T02:10:54.207Z,1006.1
2018-02-13T02:11:34.562Z,1006.1
2018-02-13T02:12:14.984Z,1006.05
2018-02-13T02:12:55.407Z,1006.09
2018-02-13T02:13:35.769Z,1006.09
2018-02-13T02:14:16.114Z,1006.04
2018-02-13T02:14:56.515Z,1006.08
2018-02-13T02:15:36.964Z,1006.08
2018-02-13T02:16:17.276Z,1006.08
2018-02-13T02:16:57.687Z,1006.07
2018-02-13T02:17:38.077Z,1006.05
2018-02-13T02:18:18.500Z,1006.05
2018-02-13T02:18:58.888Z,1006.05
2018-02-13T02:19:39.282Z,1006.08
2018-02-13T02:20:19.673Z,1006.1
2018-02-13T02:21:00.086Z,1006.06
2018-02-13T02:21:40.437Z,1006.07
2018-02-13T02:22:20.809Z,1006.06
2018-02-13T02:23:01.199Z,1006.04
2018-02-13T02:23:41.604Z,1006.03
2018-02-13T02:24:21.954Z,1006.01
2018-02-13T02:25:02.350Z,1006.01
2018-02-13T02:25:42.719Z,1005.99
2018-02-13T02:26:23.106Z,1005.99
2018-02-13T02:27:03.529Z,1005.98
2018-02-13T02:27:43.918Z,1005.94
2018-02-13T02:28:24.312Z,1006
2018-02-13T02:29:04.710Z,1005.99
2018-02-13T02:29:45.120Z,1006
2018-02-13T02:30:25.513Z,1006
2018-02-13T02:31:05.930Z,1005.97
2018-02-13T02:31:46.286Z,1005.96
2018-02-13T02:32:26.693Z,1005.94
2018-02-13T02:33:07.064Z,1005.97
2018-02-13T02:33:47.456Z,1005.97
2018-02-13T02:34:27.860Z,1006.01
2018-02-13T02:35:08.250Z,1005.94
2018-02-13T02:35:48.649Z,1005.95
2018-02-13T02:36:29.081Z,1005.93
2018-02-13T02:37:09.494Z,1005.95
2018-02-13T02:39:38.085Z,1005.9
2018-02-13T02:40:18.273Z,1005.88
2018-02-13T02:40:58.663Z,1005.88
2018-02-13T02:41:39.063Z,1005.83
2018-02-13T02:42:19.447Z,1005.84
2018-02-13T02:42:59.852Z,1005.86
2018-02-13T02:43:40.201Z,1005.86
2018-02-13T02:44:20.580Z,1005.86
2018-02-13T02:45:01.004Z,1005.84
2018-02-13T02:45:41.363Z,1005.83
2018-02-13T02:46:21.762Z,1005.86
2018-02-13T02:47:02.183Z,1005.85
2018-02-13T02:47:42.554Z,1005.85
2018-02-13T02:48:22.952Z,1005.84
2018-02-13T02:49:03.317Z,1005.82
2018-02-13T02:49:43.725Z,1005.85
2018-02-13T02:50:24.111Z,1005.86
2018-02-13T02:51:04.487Z,1005.85
2018-02-13T02:51:44.868Z,1005.81
2018-02-13T02:52:25.265Z,1005.83
2018-02-13T02:53:05.688Z,1005.87
2018-02-13T02:53:46.044Z,1005.8
2018-02-13T02:54:26.455Z,1005.85
2018-02-13T02:55:06.831Z,1005.83
2018-02-13T02:55:47.274Z,1005.83
2018-02-13T02:56:27.661Z,1005.81
2018-02-13T02:57:08.070Z,1005.83
2018-02-13T02:57:48.495Z,1005.86
2018-02-13T02:58:28.900Z,1005.85
2018-02-13T02:59:09.273Z,1005.84
2018-02-13T02:59:49.711Z,1005.82
2018-02-13T03:00:30.105Z,1005.81
2018-02-13T03:01:10.525Z,1005.81
2018-02-13T03:01:50.911Z,1005.78
2018-02-13T03:02:31.329Z,1005.81
2018-02-13T03:03:11.748Z,1005.82
2018-02-13T03:03:52.090Z,1005.79
2018-02-13T03:04:32.495Z,1005.73
2018-02-13T03:05:12.897Z,1005.75
2018-02-13T03:05:53.286Z,1005.75
2018-02-13T03:06:33.703Z,1005.79
2018-02-13T03:07:14.059Z,1005.75
2018-02-13T03:07:54.445Z,1005.74
2018-02-13T03:08:34.843Z,1005.74
2018-02-13T03:09:15.229Z,1005.77
2018-02-13T03:09:55.628Z,1005.73
2018-02-13T03:10:35.979Z,1005.73
2018-02-13T03:11:16.386Z,1005.72
2018-02-13T03:11:56.796Z,1005.77
2018-02-13T03:12:37.206Z,1005.71
2018-02-13T03:13:17.556Z,1005.73
2018-02-13T03:13:58.006Z,1005.7
2018-02-13T03:14:38.378Z,1005.69
2018-02-13T03:15:18.787Z,1005.71
2018-02-13T03:15:59.227Z,1005.74
2018-02-13T03:16:39.561Z,1005.73
2018-02-13T03:19:07.194Z,1005.7
2018-02-13T03:19:48.213Z,1005.65
2018-02-13T03:20:28.622Z,1005.66
2018-02-13T03:21:09.013Z,1005.65
2018-02-13T03:21:49.395Z,1005.67
2018-02-13T03:24:02.222Z,1005.64
2018-02-13T03:24:42.220Z,1005.7
2018-02-13T03:25:22.618Z,1005.63
2018-02-13T03:26:03.015Z,1005.62
2018-02-13T03:26:43.412Z,1005.68
2018-02-13T03:27:23.806Z,1005.68
2018-02-13T03:28:04.225Z,1005.64
2018-02-13T03:28:44.598Z,1005.62
2018-02-13T03:29:25.004Z,1005.61
2018-02-13T03:30:05.377Z,1005.59
2018-02-13T03:30:45.793Z,1005.55
2018-02-13T03:31:26.213Z,1005.59
2018-02-13T03:32:06.641Z,1005.57
2018-02-13T03:32:47.016Z,1005.59
2018-02-13T03:33:27.429Z,1005.56
2018-02-13T03:34:07.834Z,1005.54
2018-02-13T03:34:48.299Z,1005.57
2018-02-13T03:35:28.612Z,1005.53
2018-02-13T03:36:09.028Z,1005.55
2018-02-13T03:38:07.229Z,1005.54
2018-02-13T03:38:47.475Z,1005.53
2018-02-13T03:41:22.299Z,1005.52
2018-02-13T03:42:00.034Z,1005.47
2018-02-13T03:42:40.452Z,1005.48
2018-02-13T03:43:20.834Z,1005.49
2018-02-13T03:44:01.206Z,1005.45
2018-02-13T03:44:41.624Z,1005.42
2018-02-13T03:45:21.977Z,1005.46
2018-02-13T03:46:02.393Z,1005.43
2018-02-13T03:46:42.792Z,1005.47
2018-02-13T03:47:23.199Z,1005.43
2018-02-13T03:48:03.595Z,1005.46
2018-02-13T03:48:43.994Z,1005.44
2018-02-13T03:49:24.413Z,1005.46
2018-02-13T03:50:04.846Z,1005.46
2018-02-13T03:50:45.220Z,1005.47
2018-02-13T03:51:25.629Z,1005.43
2018-02-13T03:52:06.049Z,1005.46
2018-02-13T03:54:04.655Z,1005.44
2018-02-13T03:54:44.995Z,1005.44
2018-02-13T03:55:25.392Z,1005.46
2018-02-13T03:56:05.794Z,1005.46
2018-02-13T03:56:46.190Z,1005.46
2018-02-13T03:57:26.561Z,1005.45
2018-02-13T03:58:06.944Z,1005.44
2018-02-13T03:58:47.350Z,1005.46
2018-02-13T03:59:27.712Z,1005.46
2018-02-13T04:00:08.128Z,1005.49
2018-02-13T04:00:48.503Z,1005.45
2018-02-13T04:01:28.881Z,1005.47
2018-02-13T04:02:09.302Z,1005.38
2018-02-13T04:02:49.663Z,1005.37
2018-02-13T04:03:30.084Z,1005.37
2018-02-13T04:43:25.724Z,1005.2
2018-02-13T04:44:06.475Z,1005.19
2018-02-13T04:44:46.789Z,1005.14
2018-02-13T04:45:27.179Z,1005.19
2018-02-13T04:46:07.602Z,1005.23
2018-02-13T04:46:47.980Z,1005.16
2018-02-13T04:47:28.377Z,1005.15
2018-02-13T04:48:08.840Z,1005.15
2018-02-13T04:48:49.186Z,1005.15
2018-02-13T04:49:29.600Z,1005.19
2018-02-13T04:50:09.993Z,1005.18
2018-02-13T04:50:50.429Z,1005.15
2018-02-13T04:51:30.782Z,1005.15
2018-02-13T04:52:11.159Z,1005.14
2018-02-13T04:54:03.540Z,1005.14
2018-02-13T04:54:45.740Z,1005.11
2018-02-13T04:55:26.155Z,1005.13
2018-02-13T04:56:06.584Z,1005.09
2018-02-13T04:56:46.996Z,1005.06
2018-02-13T04:57:27.432Z,1005.12
2018-02-13T04:58:07.821Z,1005.05
2018-02-13T04:58:48.234Z,1005.08
2018-02-13T04:59:28.643Z,1005.04
2018-02-13T05:00:09.059Z,1005.09
2018-02-13T05:00:49.484Z,1005.07
2018-02-13T05:01:29.858Z,1005.05
2018-02-13T05:02:10.252Z,1005.04
2018-02-13T05:02:50.655Z,1005.06
2018-02-13T05:03:31.054Z,1005.04
2018-02-13T05:04:11.442Z,1005.03
2018-02-13T05:04:51.848Z,1005.05
2018-02-13T05:05:32.261Z,1005.02
2018-02-13T05:06:12.664Z,1005.06
2018-02-13T05:06:53.081Z,1005.03
2018-02-13T05:07:33.453Z,1005.05
2018-02-13T05:08:13.902Z,1005.03
2018-02-13T05:08:54.258Z,1005.03
2018-02-13T05:09:34.638Z,1005
2018-02-13T05:10:15.047Z,1005
2018-02-13T05:10:55.444Z,1004.95
2018-02-13T05:11:35.881Z,1004.97
2018-02-13T05:12:16.305Z,1005
2018-02-13T05:12:56.620Z,1004.97
2018-02-13T05:13:37.020Z,1004.97
2018-02-13T05:14:17.448Z,1004.99
2018-02-13T05:14:57.917Z,1005.01
2018-02-13T05:15:38.494Z,1004.98
2018-02-13T05:16:18.914Z,1005
2018-02-13T05:16:59.408Z,1004.99
2018-02-13T05:17:39.807Z,1004.98
2018-02-13T05:18:20.210Z,1004.93
2018-02-13T05:19:00.651Z,1004.97
2018-02-13T05:19:41.028Z,1004.89
2018-02-13T05:20:21.421Z,1004.91
2018-02-13T05:22:39.574Z,1004.89
2018-02-13T05:23:19.819Z,1004.88
2018-02-13T05:25:32.447Z,1004.87
2018-02-13T05:26:13.085Z,1004.87
2018-02-13T05:28:10.606Z,1004.88
2018-02-13T05:28:51.058Z,1004.86
2018-02-13T05:29:31.439Z,1004.86
2018-02-13T05:31:42.696Z,1004.8
2018-02-13T05:32:31.958Z,1004.8
2018-02-13T05:33:20.341Z,1004.83
2018-02-13T05:34:09.158Z,1004.84
2018-02-13T05:34:57.529Z,1004.84
2018-02-13T05:37:33.579Z,1004.82
2018-02-13T05:38:14.245Z,1004.81
2018-02-13T05:38:54.682Z,1004.81
2018-02-13T05:39:35.094Z,1004.85
2018-02-13T05:40:15.470Z,1004.82
2018-02-13T05:40:55.899Z,1004.84
2018-02-13T05:43:08.614Z,1004.86
2018-02-13T05:43:48.836Z,1004.86
2018-02-13T05:46:01.320Z,1004.85
2018-02-13T05:46:41.717Z,1004.82
2018-02-13T05:47:22.112Z,1004.84
2018-02-13T05:48:02.523Z,1004.81
2018-02-13T05:48:42.953Z,1004.81
2018-02-13T05:49:23.304Z,1004.82
2018-02-13T05:50:03.790Z,1004.84
2018-02-13T05:50:44.127Z,1004.81
2018-02-13T05:51:24.528Z,1004.76
2018-02-13T05:52:04.940Z,1004.85
2018-02-13T05:52:45.341Z,1004.77
2018-02-13T05:53:25.743Z,1004.78
2018-02-13T05:54:06.146Z,1004.76
2018-02-13T05:54:46.535Z,1004.8
2018-02-13T05:55:26.921Z,1004.84
2018-02-13T05:56:07.347Z,1004.77
2018-02-13T05:56:47.729Z,1004.8
2018-02-13T05:58:40.770Z,1004.83
2018-02-13T05:59:21.060Z,1004.8
2018-02-13T06:00:01.463Z,1004.78
2018-02-13T06:00:41.837Z,1004.77
2018-02-13T06:01:22.310Z,1004.75
2018-02-13T06:02:02.651Z,1004.77
2018-02-13T06:02:43.060Z,1004.77
2018-02-13T06:03:23.473Z,1004.79
2018-02-13T06:04:03.823Z,1004.74
2018-02-13T06:04:44.240Z,1004.74
2018-02-13T06:05:24.651Z,1004.72
2018-02-13T06:06:05.081Z,1004.71
2018-02-13T06:06:45.476Z,1004.73
2018-02-13T06:07:25.871Z,1004.73
2018-02-13T06:08:06.279Z,1004.71
2018-02-13T06:08:46.665Z,1004.76
2018-02-13T06:09:27.072Z,1004.7
2018-02-13T06:10:07.532Z,1004.74
2018-02-13T06:10:48.027Z,1004.76
2018-02-13T06:11:28.439Z,1004.75
2018-02-13T06:12:08.849Z,1004.76
2018-02-13T06:12:49.262Z,1004.75
2018-02-13T06:13:29.706Z,1004.73
2018-02-13T06:14:10.093Z,1004.74
2018-02-13T06:14:50.525Z,1004.7
2018-02-13T06:15:30.882Z,1004.74
2018-02-13T06:16:11.297Z,1004.75
2018-02-13T06:16:56.711Z,1004.73
2018-02-13T06:19:10.164Z,1004.71
2018-02-13T06:19:50.543Z,1004.71
2018-02-13T06:20:30.909Z,1004.68
2018-02-13T06:21:11.325Z,1004.65
2018-02-13T06:21:51.707Z,1004.68
2018-02-13T06:22:32.092Z,1004.65
2018-02-13T06:23:12.481Z,1004.62
2018-02-13T06:23:52.948Z,1004.61
2018-02-13T06:24:33.354Z,1004.66
2018-02-13T06:25:13.774Z,1004.63
2018-02-13T06:25:54.168Z,1004.61
2018-02-13T06:26:34.561Z,1004.68
2018-02-13T06:27:14.959Z,1004.63
2018-02-13T06:27:55.396Z,1004.62
2018-02-13T06:30:23.988Z,1004.66
2018-02-13T06:31:03.753Z,1004.65
2018-02-13T06:31:44.156Z,1004.62
2018-02-13T06:32:24.546Z,1004.69
2018-02-13T06:33:05.083Z,1004.61
2018-02-13T06:33:45.499Z,1004.64
2018-02-13T06:34:25.973Z,1004.65
2018-02-13T06:35:06.446Z,1004.66
2018-02-13T06:35:46.887Z,1004.62
2018-02-13T06:36:27.343Z,1004.68
2018-02-13T06:37:07.872Z,1004.61
2018-02-13T06:37:48.344Z,1004.62
2018-02-13T06:38:28.811Z,1004.61
2018-02-13T06:39:09.182Z,1004.62
2018-02-13T06:39:49.551Z,1004.66
2018-02-13T06:40:30.133Z,1004.61
2018-02-13T06:41:10.605Z,1004.64
2018-02-13T06:41:51.086Z,1004.66
2018-02-13T06:42:32.482Z,1004.6
2018-02-13T06:43:12.463Z,1004.64
2018-02-13T06:43:53.000Z,1004.63
2018-02-13T06:44:33.487Z,1004.62
2018-02-13T06:45:13.900Z,1004.59
2018-02-13T06:45:54.322Z,1004.6
2018-02-13T06:46:35.039Z,1004.61
2018-02-13T06:47:16.761Z,1004.63
2018-02-13T06:47:57.681Z,1004.59
2018-02-13T06:48:38.226Z,1004.56
2018-02-13T06:49:18.564Z,1004.6
2018-02-13T06:49:58.976Z,1004.59
2018-02-13T06:50:39.376Z,1004.67
2018-02-13T06:51:19.834Z,1004.61
2018-02-13T06:52:00.232Z,1004.6
2018-02-13T06:52:40.659Z,1004.6
2018-02-13T06:53:21.026Z,1004.62
2018-02-13T06:54:01.397Z,1004.64
2018-02-13T06:54:41.799Z,1004.6
2018-02-13T06:55:22.200Z,1004.64
2018-02-13T06:56:02.669Z,1004.61
2018-02-13T06:56:45.722Z,1004.6
2018-02-13T06:57:26.660Z,1004.61
2018-02-13T06:58:07.539Z,1004.6
2018-02-13T06:58:47.942Z,1004.58
2018-02-13T06:59:28.346Z,1004.66
2018-02-13T07:00:08.742Z,1004.56
2018-02-13T07:00:50.405Z,1004.7
2018-02-13T07:01:31.080Z,1004.57
2018-02-13T07:03:48.639Z,1004.53
2018-02-13T07:04:29.049Z,1004.59
2018-02-13T07:05:09.516Z,1004.64
2018-02-13T07:05:49.922Z,1004.56
2018-02-13T07:06:30.327Z,1004.62
2018-02-13T07:07:10.738Z,1004.66
2018-02-13T07:07:51.187Z,1004.6
2018-02-13T07:08:31.607Z,1004.57
2018-02-13T07:09:11.966Z,1004.63
2018-02-13T07:09:52.410Z,1004.62
2018-02-13T07:10:32.959Z,1004.61
2018-02-13T07:11:13.762Z,1004.6
2018-02-13T07:11:54.141Z,1004.58
2018-02-13T07:12:34.522Z,1004.63
2018-02-13T07:13:14.947Z,1004.56
2018-02-13T07:13:55.367Z,1004.59
2018-02-13T07:14:35.767Z,1004.57
2018-02-13T07:15:16.240Z,1004.63
2018-02-13T07:15:56.628Z,1004.58
2018-02-13T07:16:37.338Z,1004.58
2018-02-13T07:18:55.058Z,1004.57
2018-02-13T07:19:35.469Z,1004.62
2018-02-13T07:20:16.486Z,1004.65
2018-02-13T07:20:56.908Z,1004.65
2018-02-13T07:21:37.340Z,1004.66
2018-02-13T07:22:20.004Z,1004.64
2018-02-13T07:23:00.365Z,1004.6
2018-02-13T07:23:40.849Z,1004.67
2018-02-13T07:24:21.158Z,1004.77
2018-02-13T07:26:48.848Z,1004.56
2018-02-13T07:27:29.200Z,1004.63
2018-02-13T07:28:09.590Z,1004.66
2018-02-13T07:28:50.117Z,1004.67
2018-02-13T07:29:30.516Z,1004.67
2018-02-13T07:30:10.964Z,1004.63
2018-02-13T07:30:51.398Z,1004.6
2018-02-13T07:31:31.827Z,1004.63
2018-02-13T07:32:12.113Z,1004.66
2018-02-13T07:32:52.474Z,1004.61
2018-02-13T07:33:32.887Z,1004.66
2018-02-13T07:34:13.280Z,1004.6
2018-02-13T07:36:26.020Z,1004.63
2018-02-13T07:37:06.410Z,1004.66
2018-02-13T07:37:46.830Z,1004.68
2018-02-13T07:38:27.327Z,1004.67
2018-02-13T07:39:07.845Z,1004.66
2018-02-13T07:39:48.238Z,1004.7
2018-02-13T07:40:28.634Z,1004.7
2018-02-13T07:41:09.070Z,1004.69
2018-02-13T07:41:49.399Z,1004.68
2018-02-13T07:42:29.843Z,1004.64
2018-02-13T07:43:10.219Z,1004.64
2018-02-13T07:43:50.587Z,1004.68
2018-02-13T07:44:31.017Z,1004.69
2018-02-13T07:45:11.436Z,1004.7
2018-02-13T07:45:51.783Z,1004.77
2018-02-13T07:46:32.194Z,1004.75
2018-02-13T07:47:12.545Z,1004.74
2018-02-13T07:47:53.418Z,1004.75
2018-02-13T07:48:33.350Z,1004.77
2018-02-13T07:49:14.099Z,1004.8
2018-02-13T07:49:54.467Z,1004.76
2018-02-13T07:50:34.926Z,1004.83
2018-02-13T07:51:15.341Z,1004.82
2018-02-13T07:51:55.872Z,1004.84
2018-02-13T07:52:36.227Z,1004.88
2018-02-13T07:53:16.923Z,1004.91
2018-02-13T07:53:57.712Z,1004.83
2018-02-13T07:54:38.152Z,1004.81
2018-02-13T07:55:18.515Z,1004.84
2018-02-13T07:55:58.959Z,1004.85
2018-02-13T07:56:39.349Z,1004.88
2018-02-13T07:57:19.932Z,1004.87
2018-02-13T07:58:00.297Z,1004.88
2018-02-13T07:58:40.711Z,1004.86
2018-02-13T07:59:21.135Z,1004.9
2018-02-13T08:00:01.613Z,1004.89
2018-02-13T08:00:41.950Z,1004.9
2018-02-13T08:01:22.336Z,1004.9
2018-02-13T08:02:02.790Z,1004.91
2018-02-13T08:02:43.142Z,1004.89
2018-02-13T08:03:23.579Z,1004.94
2018-02-13T08:04:03.968Z,1004.95
2018-02-13T08:04:44.524Z,1004.92
2018-02-13T08:05:25.442Z,1004.94
2018-02-13T08:06:05.859Z,1004.92
2018-02-13T08:06:46.304Z,1004.86
2018-02-13T08:07:26.685Z,1004.86
2018-02-13T08:08:07.226Z,1004.83
2018-02-13T08:08:47.801Z,1004.86
2018-02-13T08:09:28.239Z,1004.85
2018-02-13T08:10:08.614Z,1004.8
2018-02-13T08:10:49.083Z,1004.85
2018-02-13T08:11:29.391Z,1004.82
2018-02-13T08:12:09.894Z,1004.82
2018-02-13T08:14:32.484Z,1004.83
2018-02-13T08:15:12.455Z,1004.8
2018-02-13T08:15:52.835Z,1004.73
2018-02-13T08:16:33.246Z,1004.78
2018-02-13T08:17:13.751Z,1004.74
2018-02-13T08:17:54.176Z,1004.75
2018-02-13T08:18:34.532Z,1004.73
2018-02-13T08:19:14.992Z,1004.73
2018-02-13T08:19:55.393Z,1004.71
2018-02-13T08:20:35.793Z,1004.72
2018-02-13T08:21:16.254Z,1004.71
2018-02-13T08:21:56.619Z,1004.74
2018-02-13T08:22:36.994Z,1004.7
2018-02-13T08:23:17.505Z,1004.73
2018-02-13T08:23:57.883Z,1004.7
2018-02-13T08:24:38.314Z,1004.69
2018-02-13T08:25:18.729Z,1004.73
2018-02-13T08:25:59.114Z,1004.67
2018-02-13T08:26:39.551Z,1004.67
2018-02-13T08:27:19.963Z,1004.63
2018-02-13T08:28:00.431Z,1004.69
2018-02-13T08:28:40.805Z,1004.69
2018-02-13T08:29:21.216Z,1004.68
2018-02-13T08:30:01.656Z,1004.64
2018-02-13T08:30:42.396Z,1004.72
2018-02-13T08:31:22.726Z,1004.64
2018-02-13T08:32:03.291Z,1004.58
2018-02-13T08:32:43.951Z,1004.66
2018-02-13T08:33:24.537Z,1004.65
2018-02-13T08:34:05.288Z,1004.62
2018-02-13T08:34:45.875Z,1004.6
2018-02-13T08:35:26.276Z,1004.59
2018-02-13T08:38:50.648Z,1004.57
2018-02-13T08:39:35.417Z,1004.58
2018-02-13T08:40:15.773Z,1004.62
2018-02-13T08:40:56.181Z,1004.57
2018-02-13T08:41:36.707Z,1004.54
2018-02-13T08:42:17.177Z,1004.57
2018-02-13T08:42:57.681Z,1004.58
2018-02-13T08:43:38.798Z,1004.55
2018-02-13T08:44:19.805Z,1004.51
2018-02-13T08:44:59.630Z,1004.48
2018-02-13T08:45:40.612Z,1004.44
2018-02-13T08:46:21.431Z,1004.46
2018-02-13T08:47:01.895Z,1004.45
2018-02-13T08:47:42.257Z,1004.47
2018-02-13T08:48:22.632Z,1004.44
2018-02-13T08:49:03.041Z,1004.52
2018-02-13T08:49:44.574Z,1004.47
2018-02-13T08:50:24.993Z,1004.4
2018-02-13T08:51:05.614Z,1004.43
2018-02-13T08:51:46.008Z,1004.44
2018-02-13T08:52:26.411Z,1004.41
2018-02-13T08:53:06.827Z,1004.4
2018-02-13T08:53:47.513Z,1004.43
2018-02-13T08:54:27.816Z,1004.38
2018-02-13T08:55:08.304Z,1004.44
2018-02-13T08:55:48.592Z,1004.4
2018-02-13T08:56:29.027Z,1004.4
2018-02-13T08:57:10.280Z,1004.42
2018-02-13T08:57:50.144Z,1004.4
2018-02-13T08:58:31.192Z,1004.38
2018-02-13T08:59:11.641Z,1004.37
2018-02-13T08:59:52.779Z,1004.39
2018-02-13T09:00:33.878Z,1004.39
2018-02-13T09:01:13.825Z,1004.41
2018-02-13T09:01:54.830Z,1004.37
2018-02-13T09:02:35.667Z,1004.42
2018-02-13T09:03:16.458Z,1004.32
2018-02-13T09:03:58.091Z,1004.34
2018-02-13T09:04:38.335Z,1004.34
2018-02-13T09:05:18.701Z,1004.4
2018-02-13T09:05:59.106Z,1004.31
2018-02-13T09:06:39.556Z,1004.4
2018-02-13T09:07:19.998Z,1004.34
2018-02-13T09:08:00.377Z,1004.33
2018-02-13T09:08:40.840Z,1004.29
2018-02-13T09:09:21.239Z,1004.28
2018-02-13T09:10:01.715Z,1004.36
2018-02-13T09:10:42.155Z,1004.35
2018-02-13T09:11:22.637Z,1004.26
2018-02-13T09:12:03.040Z,1004.37
2018-02-13T09:12:43.459Z,1004.24
2018-02-13T09:13:23.886Z,1004.36
2018-02-13T09:14:04.351Z,1004.25
2018-02-13T09:14:44.729Z,1004.25
2018-02-13T09:15:25.119Z,1004.26
2018-02-13T09:16:05.563Z,1004.25
2018-02-13T09:16:46.003Z,1004.24
2018-02-13T09:17:26.470Z,1004.27
2018-02-13T09:18:06.880Z,1004.27
2018-02-13T09:18:47.333Z,1004.2
2018-02-13T09:19:27.731Z,1004.18
2018-02-13T09:20:08.093Z,1004.2
2018-02-13T09:20:48.519Z,1004.23
2018-02-13T09:23:06.275Z,1004.19
2018-02-13T09:23:48.740Z,1004.22
2018-02-13T09:24:29.104Z,1004.17
2018-02-13T09:25:09.588Z,1004.2
2018-02-13T09:25:49.899Z,1004.19
2018-02-13T09:26:30.334Z,1004.16
2018-02-13T09:27:10.806Z,1004.12
2018-02-13T09:27:51.540Z,1004.24
2018-02-13T09:28:32.137Z,1004.14
2018-02-13T09:29:12.588Z,1004.18
2018-02-13T09:29:53.080Z,1004.14
2018-02-13T09:30:33.685Z,1004.22
2018-02-13T09:31:14.363Z,1004.17
2018-02-13T09:31:58.597Z,1004.17
2018-02-13T09:32:38.996Z,1004.15
2018-02-13T09:34:59.776Z,1004.16
2018-02-13T09:35:39.296Z,1004.22
2018-02-13T09:36:20.276Z,1004.12
2018-02-13T09:37:00.692Z,1004.15
2018-02-13T09:37:41.565Z,1004.13
2018-02-13T09:38:21.968Z,1004.14
2018-02-13T09:39:02.369Z,1004.19
2018-02-13T09:40:54.850Z,1004.16
2018-02-13T09:41:35.676Z,1004.21
2018-02-13T09:42:16.044Z,1004.17
2018-02-13T09:42:56.436Z,1004.13
2018-02-13T09:43:36.980Z,1004.13
2018-02-13T09:44:17.782Z,1004.14
2018-02-13T09:44:58.901Z,1004.11
2018-02-13T09:45:38.741Z,1004.13
2018-02-13T09:46:19.764Z,1004.13
2018-02-13T09:47:00.221Z,1004.17